createdAt,value
2023-05-11T00:00:44.397Z,100210.50
2023-05-11T00:03:12.619Z,100224.47
2023-05-11T00:05:40.803Z,100221.66
2023-05-11T00:08:09.201Z,100215.75
2023-05-11T00:10:37.122Z,100218.97
2023-05-11T00:13:06.441Z,100223.94
2023-05-11T00:15:34.390Z,100219.88
2023-05-11T00:18:02.402Z,100222.50
2023-05-11T00:20:30.328Z,100220.31
2023-05-11T00:22:58.305Z,100219.78
2023-05-11T00:25:26.277Z,100221.50
2023-05-11T00:27:54.223Z,100222.38
2023-05-11T00:30:23.649Z,100230.03
2023-05-11T00:32:52.254Z,100223.97
2023-05-11T00:35:20.267Z,100223.59
2023-05-11T00:37:48.389Z,100221.50
2023-05-11T00:40:16.563Z,100224.16
2023-05-11T00:42:44.631Z,100215.16
2023-05-11T00:45:12.574Z,100224.50
2023-05-11T00:47:41.939Z,100221.81
2023-05-11T00:50:10.544Z,100214.06
2023-05-11T00:52:38.447Z,100213.97
2023-05-11T00:55:07.524Z,100208.22
2023-05-11T00:57:36.283Z,100211.47
2023-05-11T01:00:04.364Z,100209.94
2023-05-11T01:02:32.453Z,100208.00
2023-05-11T01:05:01.878Z,100205.91
2023-05-11T01:07:33.544Z,100212.53
2023-05-11T01:10:04.216Z,100211.16
2023-05-11T01:12:37.420Z,100213.41
2023-05-11T01:15:08.588Z,100209.63
2023-05-11T01:17:41.820Z,100210.22
2023-05-11T01:20:13.972Z,100210.63
2023-05-11T01:22:50.102Z,100193.50
2023-05-11T01:25:29.188Z,100210.63
2023-05-11T01:28:22.528Z,100209.53
2023-05-11T01:30:52.540Z,100214.44
2023-05-11T01:33:22.834Z,100215.16
2023-05-11T01:35:53.573Z,100206.72
2023-05-11T01:38:22.366Z,100212.06
2023-05-11T01:40:53.285Z,100217.41
2023-05-11T01:43:22.300Z,100210.66
2023-05-11T01:45:51.944Z,100208.69
2023-05-11T01:48:21.626Z,100218.25
2023-05-11T01:50:49.552Z,100213.75
2023-05-11T01:53:17.784Z,100216.44
2023-05-11T01:55:46.273Z,100214.31
2023-05-11T01:58:15.555Z,100208.44
2023-05-11T02:00:44.099Z,100212.91
2023-05-11T02:03:13.536Z,100209.28
2023-05-11T02:05:41.468Z,100211.50
2023-05-11T02:08:09.435Z,100204.22
2023-05-11T02:10:37.378Z,100204.22
2023-05-11T02:13:05.266Z,100208.44
2023-05-11T02:15:33.266Z,100212.06
2023-05-11T02:18:01.294Z,100206.88
2023-05-11T02:20:31.056Z,100214.75
2023-05-11T02:22:59.034Z,100214.75
2023-05-11T02:25:26.972Z,100215.16
2023-05-11T02:27:54.887Z,100220.94
2023-05-11T02:30:22.846Z,100218.25
2023-05-11T02:32:53.052Z,100217.69
2023-05-11T02:35:25.417Z,100211.25
2023-05-11T02:37:56.635Z,100206.16
2023-05-11T02:40:28.503Z,100210.94
2023-05-11T02:42:58.319Z,100208.44
2023-05-11T02:45:26.420Z,100211.50
2023-05-11T02:47:55.335Z,100213.06
2023-05-11T02:50:24.304Z,100221.78
2023-05-11T02:52:54.775Z,100226.41
2023-05-11T02:55:22.677Z,100228.09
2023-05-11T02:57:50.639Z,100224.72
2023-05-11T03:00:18.832Z,100230.06
2023-05-11T03:02:47.084Z,100230.75
2023-05-11T03:05:15.115Z,100223.88
2023-05-11T03:07:43.033Z,100228.63
2023-05-11T03:10:12.690Z,100230.47
2023-05-11T03:12:40.580Z,100233.69
2023-05-11T03:15:12.030Z,100236.94
2023-05-11T03:17:40.129Z,100233.69
2023-05-11T03:20:09.348Z,100227.50
2023-05-11T03:22:37.302Z,100227.63
2023-05-11T03:25:05.600Z,100224.94
2023-05-11T03:27:34.920Z,100230.84
2023-05-11T03:30:02.928Z,100224.59
2023-05-11T03:32:30.873Z,100228.81
2023-05-11T03:34:58.844Z,100227.63
2023-05-11T03:37:26.932Z,100230.81
2023-05-11T03:39:56.552Z,100231.78
2023-05-11T03:42:24.467Z,100241.81
2023-05-11T03:44:55.988Z,100244.31
2023-05-11T03:49:51.823Z,100226.22
2023-05-11T03:52:19.931Z,100250.41
2023-05-11T03:54:47.882Z,100236.09
2023-05-11T03:57:15.988Z,100248.66
2023-05-11T03:59:43.949Z,100246.88
2023-05-11T04:02:13.294Z,100248.78
2023-05-11T04:04:41.296Z,100252.03
2023-05-11T04:07:09.216Z,100248.16
2023-05-11T04:09:37.172Z,100244.06
2023-05-11T04:12:05.542Z,100251.69
2023-05-11T04:14:33.476Z,100246.72
2023-05-11T04:17:01.455Z,100250.44
2023-05-11T04:19:30.789Z,100240.44
2023-05-11T04:21:58.747Z,100243.47
2023-05-11T04:24:26.732Z,100248.34
2023-05-11T04:26:57.270Z,100245.06
2023-05-11T04:29:25.194Z,100255.56
2023-05-11T04:31:53.262Z,100251.22
2023-05-11T04:34:21.782Z,100247.09
2023-05-11T04:36:51.082Z,100257.72
2023-05-11T04:39:19.033Z,100253.84
2023-05-11T04:41:47.104Z,100259.19
2023-05-11T04:44:15.041Z,100254.84
2023-05-11T04:46:43.036Z,100268.63
2023-05-11T04:49:10.985Z,100263.56
2023-05-11T04:51:39.370Z,100264.09
2023-05-11T04:54:08.642Z,100270.75
2023-05-11T04:56:40.514Z,100269.69
2023-05-11T04:59:08.610Z,100272.13
2023-05-11T05:01:36.638Z,100272.53
2023-05-11T05:04:04.910Z,100274.25
2023-05-11T05:06:33.803Z,100268.19
2023-05-11T05:09:01.811Z,100262.59
2023-05-11T05:11:31.130Z,100261.50
2023-05-11T05:13:59.020Z,100262.66
2023-05-11T05:16:27.000Z,100260.31
2023-05-11T05:18:54.941Z,100258.16
2023-05-11T05:21:22.891Z,100261.69
2023-05-11T05:23:50.902Z,100268.22
2023-05-11T05:26:18.845Z,100262.44
2023-05-11T05:28:48.138Z,100253.16
2023-05-11T05:31:16.142Z,100253.41
2023-05-11T05:33:44.069Z,100254.16
2023-05-11T05:36:12.012Z,100252.22
2023-05-11T05:38:39.926Z,100249.91
2023-05-11T05:41:07.961Z,100251.63
2023-05-11T05:43:35.911Z,100255.78
2023-05-11T05:46:06.387Z,100258.50
2023-05-11T05:48:34.341Z,100257.44
2023-05-11T05:51:02.284Z,100259.31
2023-05-11T05:53:30.270Z,100258.13
2023-05-11T05:55:58.192Z,100255.88
2023-05-11T05:58:26.136Z,100264.94
2023-05-11T06:00:54.099Z,100258.47
2023-05-11T06:03:23.528Z,100265.59
2023-05-11T06:05:51.503Z,100267.41
2023-05-11T06:08:19.492Z,100256.59
2023-05-11T06:10:47.399Z,100256.56
2023-05-11T06:13:15.305Z,100259.03
2023-05-11T06:15:43.604Z,100263.69
2023-05-11T06:18:11.967Z,100251.56
2023-05-11T06:20:41.269Z,100252.81
2023-05-11T06:23:09.206Z,100254.09
2023-05-11T06:25:37.241Z,100254.09
2023-05-11T06:28:05.295Z,100251.13
2023-05-11T06:30:33.218Z,100247.34
2023-05-11T06:33:01.398Z,100250.31
2023-05-11T06:35:30.329Z,100249.94
2023-05-11T06:37:59.632Z,100246.22
2023-05-11T06:40:27.691Z,100253.19
2023-05-11T06:42:55.708Z,100248.97
2023-05-11T06:45:23.798Z,100251.59
2023-05-11T06:47:51.822Z,100251.28
2023-05-11T06:50:21.317Z,100256.78
2023-05-11T06:52:50.050Z,100251.56
2023-05-11T06:55:19.464Z,100247.47
2023-05-11T06:57:47.403Z,100253.66
2023-05-11T07:00:16.517Z,100249.81
2023-05-11T07:02:44.585Z,100249.16
2023-05-11T07:05:12.981Z,100251.09
2023-05-11T07:07:40.937Z,100249.56
2023-05-11T07:10:10.053Z,100246.06
2023-05-11T07:12:39.344Z,100247.22
2023-05-11T07:15:08.322Z,100253.44
2023-05-11T07:17:36.307Z,100245.88
2023-05-11T07:20:04.390Z,100249.28
2023-05-11T07:22:32.292Z,100248.75
2023-05-11T07:25:01.516Z,100247.22
2023-05-11T07:27:29.484Z,100245.47
2023-05-11T07:29:58.801Z,100241.50
2023-05-11T07:32:26.794Z,100207.91
2023-05-11T07:34:54.760Z,100241.69
2023-05-11T07:37:22.680Z,100236.22
2023-05-11T07:39:50.705Z,100236.66
2023-05-11T07:42:18.626Z,100238.56
2023-05-11T07:44:46.615Z,100236.13
2023-05-11T07:47:16.339Z,100232.97
2023-05-11T07:49:44.556Z,100234.84
2023-05-11T07:52:12.671Z,100232.81
2023-05-11T07:54:40.942Z,100240.91
2023-05-11T07:57:09.115Z,100241.16
2023-05-11T07:59:37.283Z,100240.31
2023-05-11T08:02:05.390Z,100244.03
2023-05-11T08:04:35.062Z,100239.25
2023-05-11T08:07:03.031Z,100233.53
2023-05-11T08:09:30.951Z,100246.59
2023-05-11T08:12:01.556Z,100235.66
2023-05-11T08:14:29.505Z,100241.84
2023-05-11T08:16:57.454Z,100229.94
2023-05-11T08:19:25.417Z,100226.78
2023-05-11T08:21:54.720Z,100226.19
2023-05-11T08:24:22.636Z,100228.56
2023-05-11T08:26:50.562Z,100234.47
2023-05-11T08:29:18.516Z,100219.94
2023-05-11T08:31:46.466Z,100228.06
2023-05-11T08:34:19.722Z,100222.63
2023-05-11T08:36:48.312Z,100228.44
2023-05-11T08:39:28.539Z,100217.28
2023-05-11T08:42:07.114Z,100221.09
2023-05-11T08:44:37.726Z,100214.88
2023-05-11T08:47:21.820Z,100212.00
2023-05-11T08:49:51.798Z,100205.00
2023-05-11T08:52:19.786Z,100204.25
2023-05-11T08:54:49.191Z,100208.75
2023-05-11T08:57:17.133Z,100201.41
2023-05-11T08:59:45.948Z,100200.47
2023-05-11T09:02:17.162Z,100192.63
2023-05-11T09:04:48.079Z,100189.09
2023-05-11T09:07:17.372Z,100195.50
2023-05-11T09:09:45.440Z,100182.53
2023-05-11T09:12:14.957Z,100181.94
2023-05-11T09:14:43.119Z,100178.03
2023-05-11T09:17:11.175Z,100190.53
2023-05-11T09:19:39.337Z,100188.84
2023-05-11T09:22:07.830Z,100182.28
2023-05-11T09:24:35.791Z,100187.19
2023-05-11T09:27:10.076Z,100186.91
2023-05-11T09:29:39.524Z,100184.41
2023-05-11T09:32:08.181Z,100181.00
2023-05-11T09:34:36.139Z,100173.38
2023-05-11T09:37:04.208Z,100172.75
2023-05-11T09:42:13.775Z,100159.13
2023-05-11T09:44:44.395Z,100158.41
2023-05-11T09:47:13.794Z,100156.78
2023-05-11T09:49:43.372Z,100156.25
2023-05-11T09:52:12.269Z,100155.69
2023-05-11T09:54:46.504Z,100160.00
2023-05-11T09:57:24.817Z,100160.78
2023-05-11T09:59:54.345Z,100153.47
2023-05-11T10:02:23.404Z,100158.88
2023-05-11T10:04:51.796Z,100152.97
2023-05-11T10:07:29.833Z,100141.16
2023-05-11T10:09:58.483Z,100134.88
2023-05-11T10:12:27.411Z,100131.84
2023-05-11T10:15:02.884Z,100136.38
2023-05-11T10:17:31.484Z,100134.81
2023-05-11T10:19:59.532Z,100139.78
2023-05-11T10:22:28.187Z,100136.00
2023-05-11T10:24:56.647Z,100137.97
2023-05-11T10:27:24.762Z,100136.84
2023-05-11T10:29:52.814Z,100135.88
2023-05-11T10:32:22.684Z,100130.88
2023-05-11T10:34:51.976Z,100131.22
2023-05-11T10:37:21.271Z,100127.63
2023-05-11T10:39:50.594Z,100125.63
2023-05-11T10:42:36.308Z,100130.22
2023-05-11T10:45:13.927Z,100122.44
2023-05-11T10:48:08.759Z,100127.22
2023-05-11T10:50:49.216Z,100099.91
2023-05-11T10:53:26.526Z,100115.69
2023-05-11T10:56:06.249Z,100120.47
2023-05-11T10:58:42.167Z,100114.81
2023-05-11T11:01:33.065Z,100120.06
2023-05-11T11:04:05.554Z,100126.75
2023-05-11T11:06:33.533Z,100113.44
2023-05-11T11:09:02.012Z,100119.56
2023-05-11T11:11:33.930Z,100117.91
2023-05-11T11:14:03.777Z,100098.59
2023-05-11T11:16:31.813Z,100124.41
2023-05-11T11:19:38.785Z,100120.84
2023-05-11T11:22:06.881Z,100115.63
2023-05-11T11:24:44.258Z,100111.72
2023-05-11T11:27:12.239Z,100110.09
2023-05-11T11:29:40.410Z,100112.97
2023-05-11T11:32:29.559Z,100112.22
2023-05-11T11:34:59.044Z,100110.53
2023-05-11T11:37:26.996Z,100080.38
2023-05-11T11:40:13.669Z,100091.72
2023-05-11T11:42:44.468Z,100110.22
2023-05-11T11:45:46.748Z,100101.91
2023-05-11T11:48:15.837Z,100098.50
2023-05-11T11:50:47.037Z,100092.28
2023-05-11T11:53:30.533Z,100090.84
2023-05-11T11:55:58.635Z,100093.03
2023-05-11T11:59:00.474Z,100107.38
2023-05-11T12:01:31.009Z,100092.75
2023-05-11T12:04:31.697Z,100083.03
2023-05-11T12:07:01.382Z,100087.00
2023-05-11T12:09:29.450Z,100084.19
2023-05-11T12:11:57.534Z,100076.50
2023-05-11T12:14:25.527Z,100067.75
2023-05-11T12:17:04.332Z,100077.34
2023-05-11T12:19:32.331Z,100078.06
2023-05-11T12:22:01.699Z,100077.81
2023-05-11T12:24:29.657Z,100076.28
2023-05-11T12:26:58.771Z,100073.38
2023-05-11T12:29:27.126Z,100081.66
2023-05-11T12:31:55.945Z,100075.44
2023-05-11T12:34:23.973Z,100071.00
2023-05-11T12:36:53.187Z,100071.59
2023-05-11T12:39:23.186Z,100075.22
2023-05-11T12:41:51.861Z,100062.94
2023-05-11T12:44:19.910Z,100065.94
2023-05-11T12:46:48.133Z,100056.59
2023-05-11T12:49:24.787Z,100060.50
2023-05-11T12:52:00.562Z,100047.19
2023-05-11T12:54:37.629Z,100048.84
2023-05-11T12:57:06.351Z,100053.16
2023-05-11T12:59:37.404Z,100038.47
2023-05-11T13:02:12.778Z,100043.59
2023-05-11T13:04:40.949Z,100038.09
2023-05-11T13:07:08.890Z,100044.84
2023-05-11T13:09:38.241Z,100046.50
2023-05-11T13:12:15.916Z,100040.28
2023-05-11T13:14:44.098Z,100031.78
2023-05-11T13:17:12.056Z,100037.94
2023-05-11T13:19:40.848Z,100031.78
2023-05-11T13:22:09.182Z,100027.22
2023-05-11T13:24:38.496Z,100033.69
2023-05-11T13:27:06.979Z,100033.59
2023-05-11T13:29:36.726Z,100039.44
2023-05-11T13:32:05.074Z,100036.50
2023-05-11T13:34:33.043Z,100034.41
2023-05-11T13:37:01.061Z,100032.06
2023-05-11T13:39:28.947Z,100026.97
2023-05-11T13:41:58.285Z,100026.66
2023-05-11T13:44:26.682Z,100031.31
2023-05-11T13:46:55.389Z,100038.66
2023-05-11T13:49:23.320Z,100036.94
2023-05-11T13:51:52.556Z,100026.34
2023-05-11T13:54:21.365Z,100031.84
2023-05-11T13:56:49.319Z,100026.44
2023-05-11T13:59:18.646Z,100027.16
2023-05-11T14:01:46.712Z,100027.63
2023-05-11T14:04:14.724Z,100032.44
2023-05-11T14:06:43.134Z,100040.59
2023-05-11T14:09:11.114Z,100035.22
2023-05-11T14:11:39.681Z,100026.63
2023-05-11T14:14:07.817Z,100036.06
2023-05-11T14:16:37.189Z,100025.13
2023-05-11T14:19:05.246Z,100026.09
2023-05-11T14:21:33.568Z,100036.25
2023-05-11T14:24:11.345Z,100033.63
2023-05-11T14:26:39.827Z,100031.44
2023-05-11T14:29:07.731Z,100026.28
2023-05-11T14:31:37.829Z,100025.22
2023-05-11T14:34:06.075Z,100034.75
2023-05-11T14:36:34.067Z,100033.34
2023-05-11T14:39:02.796Z,100030.69
2023-05-11T14:41:31.051Z,100030.78
2023-05-11T14:43:59.000Z,100032.31
2023-05-11T14:46:27.101Z,100022.41
2023-05-11T14:48:56.503Z,100026.63
2023-05-11T14:51:24.446Z,100024.50
2023-05-11T14:53:52.459Z,100022.38
2023-05-11T14:56:20.430Z,100025.38
2023-05-11T14:58:48.335Z,100030.00
2023-05-11T15:01:16.752Z,100029.22
2023-05-11T15:03:45.024Z,100029.72
2023-05-11T15:06:20.976Z,100035.78
2023-05-11T15:08:49.074Z,100035.41
2023-05-11T15:11:17.053Z,100030.53
2023-05-11T15:13:47.416Z,100035.03
2023-05-11T15:16:15.642Z,100040.59
2023-05-11T15:18:43.713Z,100032.94
2023-05-11T15:21:11.700Z,100041.13
2023-05-11T15:23:41.104Z,100041.59
2023-05-11T15:26:09.066Z,100035.91
2023-05-11T15:28:37.040Z,100043.16
2023-05-11T15:31:05.017Z,100044.50
2023-05-11T15:33:33.455Z,100052.84
2023-05-11T15:36:01.463Z,100058.72
2023-05-11T15:38:29.418Z,100062.06
2023-05-11T15:40:58.847Z,100058.91
2023-05-11T15:43:27.046Z,100052.09
2023-05-11T15:45:55.416Z,100053.31
2023-05-11T15:48:23.394Z,100059.25
2023-05-11T15:50:51.346Z,100017.84
2023-05-11T15:53:19.279Z,100054.34
2023-05-11T15:55:50.793Z,100050.31
2023-05-11T15:58:20.176Z,100052.00
2023-05-11T16:00:48.348Z,100064.25
2023-05-11T16:03:16.589Z,100055.03
2023-05-11T16:05:45.554Z,100060.56
2023-05-11T16:08:13.965Z,100058.50
2023-05-11T16:10:41.925Z,100067.31
2023-05-11T16:13:10.035Z,100073.41
2023-05-11T16:15:39.342Z,100078.25
2023-05-11T16:18:07.303Z,100079.53
2023-05-11T16:20:35.281Z,100079.72
2023-05-11T16:23:04.224Z,100069.06
2023-05-11T16:25:32.216Z,100074.50
2023-05-11T16:28:00.157Z,100078.69
2023-05-11T16:30:28.357Z,100084.53
2023-05-11T16:32:57.829Z,100087.66
2023-05-11T16:35:25.848Z,100098.53
2023-05-11T16:37:55.055Z,100099.97
2023-05-11T16:40:23.092Z,100103.75
2023-05-11T16:42:50.999Z,100102.09
2023-05-11T16:45:19.009Z,100095.81
2023-05-11T16:47:47.045Z,100109.81
2023-05-11T16:50:16.705Z,100105.81
2023-05-11T16:52:45.177Z,100108.97
2023-05-11T16:55:13.133Z,100110.84
2023-05-11T16:57:41.036Z,100105.81
2023-05-11T17:00:09.919Z,100116.66
2023-05-11T17:02:37.986Z,100103.31
2023-05-11T17:05:06.815Z,100109.53
2023-05-11T17:07:36.141Z,100112.03
2023-05-11T17:10:04.133Z,100118.59
2023-05-11T17:12:32.420Z,100116.47
2023-05-11T17:15:00.704Z,100123.19
2023-05-11T17:17:28.790Z,100135.53
2023-05-11T17:19:56.737Z,100133.25
2023-05-11T17:22:25.938Z,100130.88
2023-05-11T17:24:55.294Z,100131.66
2023-05-11T17:27:23.261Z,100132.44
2023-05-11T17:29:51.325Z,100123.47
2023-05-11T17:32:19.594Z,100126.88
2023-05-11T17:34:47.945Z,100128.06
2023-05-11T17:37:30.551Z,100135.38
2023-05-11T17:40:01.143Z,100132.44
2023-05-11T17:42:29.403Z,100130.63
2023-05-11T17:44:57.332Z,100136.13
2023-05-11T17:47:26.164Z,100135.66
2023-05-11T17:49:54.289Z,100136.38
2023-05-11T17:52:22.205Z,100137.63
2023-05-11T17:54:50.176Z,100152.91
2023-05-11T17:57:19.496Z,100152.63
2023-05-11T17:59:47.842Z,100150.44
2023-05-11T18:02:16.624Z,100155.47
2023-05-11T18:04:44.626Z,100157.22
2023-05-11T18:07:12.540Z,100164.22
2023-05-11T18:09:40.569Z,100166.19
2023-05-11T18:12:09.634Z,100167.63
2023-05-11T18:14:38.933Z,100178.97
2023-05-11T18:17:06.876Z,100181.22
2023-05-11T18:19:34.780Z,100186.06
2023-05-11T18:22:02.712Z,100189.03
2023-05-11T18:24:30.693Z,100188.06
2023-05-11T18:26:58.648Z,100198.13
2023-05-11T18:29:26.964Z,100202.31
2023-05-11T18:31:56.386Z,100199.13
2023-05-11T18:34:24.497Z,100207.31
2023-05-11T18:36:52.407Z,100216.53
2023-05-11T18:39:20.444Z,100211.47
2023-05-11T18:41:48.360Z,100216.94
2023-05-11T18:44:16.443Z,100204.56
2023-05-11T18:46:44.507Z,100205.13
2023-05-11T18:49:14.091Z,100211.03
2023-05-11T18:51:42.015Z,100214.75
2023-05-11T18:54:10.125Z,100211.13
2023-05-11T18:56:38.080Z,100205.84
2023-05-11T18:59:06.064Z,100228.94
2023-05-11T19:01:46.726Z,100221.38
2023-05-11T19:04:19.703Z,100215.97
2023-05-11T19:06:47.993Z,100220.59
2023-05-11T19:09:16.024Z,100222.78
2023-05-11T19:11:44.290Z,100220.16
2023-05-11T19:14:14.456Z,100225.25
2023-05-11T19:16:43.020Z,100224.56
2023-05-11T19:19:11.447Z,100229.28
2023-05-11T19:21:42.526Z,100229.63
2023-05-11T19:24:10.762Z,100225.94
2023-05-11T19:26:39.285Z,100226.31
2023-05-11T19:29:08.193Z,100227.38
2023-05-11T19:31:36.247Z,100230.59
2023-05-11T19:34:04.219Z,100231.59
2023-05-11T19:36:32.121Z,100234.50
2023-05-11T19:39:01.405Z,100229.31
2023-05-11T19:41:29.295Z,100231.13
2023-05-11T19:43:57.366Z,100236.91
2023-05-11T19:46:25.322Z,100237.09
2023-05-11T19:48:53.365Z,100236.44
2023-05-11T19:51:22.315Z,100227.50
2023-05-11T19:53:50.260Z,100225.53
2023-05-11T19:56:19.577Z,100228.56
2023-05-11T19:58:47.540Z,100227.91
2023-05-11T20:01:15.566Z,100225.75
2023-05-11T20:03:43.753Z,100226.91
2023-05-11T20:06:11.753Z,100227.59
2023-05-11T20:08:39.727Z,100239.38
2023-05-11T20:11:07.651Z,100236.38
2023-05-11T20:13:36.951Z,100238.06
2023-05-11T20:16:05.022Z,100236.72
2023-05-11T20:18:33.338Z,100231.88
2023-05-11T20:21:01.454Z,100229.34
2023-05-11T20:23:29.371Z,100235.38
2023-05-11T20:25:57.334Z,100233.06
2023-05-11T20:28:27.307Z,100236.75
2023-05-11T20:30:57.224Z,100239.75
2023-05-11T20:35:55.972Z,100241.09
2023-05-11T20:38:23.958Z,100242.44
2023-05-11T20:40:56.368Z,100241.56
2023-05-11T20:43:25.627Z,100242.38
2023-05-11T20:45:53.966Z,100243.22
2023-05-11T20:48:32.372Z,100242.06
2023-05-11T20:51:06.812Z,100243.88
2023-05-11T20:53:34.719Z,100236.63
2023-05-11T20:56:03.282Z,100239.69
2023-05-11T20:58:31.472Z,100241.34
2023-05-11T21:00:59.593Z,100237.31
2023-05-11T21:03:28.948Z,100223.56
2023-05-11T21:05:58.142Z,100235.97
2023-05-11T21:08:26.109Z,100234.97
2023-05-11T21:10:54.217Z,100226.53
2023-05-11T21:13:22.166Z,100232.13
2023-05-11T21:15:50.162Z,100227.50
2023-05-11T21:18:18.252Z,100230.19
2023-05-11T21:20:47.724Z,100228.19
2023-05-11T21:23:15.699Z,100222.81
2023-05-11T21:25:43.669Z,100231.19
2023-05-11T21:28:11.630Z,100240.25
2023-05-11T21:30:39.572Z,100232.72
2023-05-11T21:33:07.571Z,100237.94
2023-05-11T21:35:35.569Z,100235.25
2023-05-11T21:38:04.880Z,100234.94
2023-05-11T21:40:32.801Z,100235.59
2023-05-11T21:43:00.747Z,100226.88
2023-05-11T21:45:28.690Z,100224.84
2023-05-11T21:47:58.664Z,100233.41
2023-05-11T21:50:26.687Z,100220.66
2023-05-11T21:52:54.667Z,100227.88
2023-05-11T21:55:24.314Z,100222.16
2023-05-11T21:57:52.824Z,100216.47
2023-05-11T22:00:22.684Z,100217.97
2023-05-11T22:02:50.805Z,100214.47
2023-05-11T22:05:18.852Z,100215.47
2023-05-11T22:07:47.038Z,100211.94
2023-05-11T22:10:15.009Z,100178.13
2023-05-11T22:12:44.380Z,100223.50
2023-05-11T22:15:13.192Z,100207.19
2023-05-11T22:17:41.124Z,100211.75
2023-05-11T22:20:11.010Z,100208.03
2023-05-11T22:22:38.988Z,100204.19
2023-05-11T22:25:07.847Z,100206.00
2023-05-11T22:27:36.094Z,100212.69
2023-05-11T22:30:06.207Z,100207.69
2023-05-11T22:32:34.151Z,100205.16
2023-05-11T22:35:02.452Z,100203.47
2023-05-11T22:37:30.425Z,100206.00
2023-05-11T22:39:58.340Z,100212.84
2023-05-11T22:42:26.331Z,100208.13
2023-05-11T22:44:54.440Z,100210.34
2023-05-11T22:47:23.706Z,100205.97
2023-05-11T22:49:52.023Z,100205.28
2023-05-11T22:52:19.933Z,100205.28
2023-05-11T22:54:47.835Z,100198.56
2023-05-11T22:57:17.254Z,100201.75
2023-05-11T22:59:46.776Z,100205.97
2023-05-11T23:02:14.896Z,100198.94
2023-05-11T23:04:44.471Z,100208.31
2023-05-11T23:07:12.913Z,100214.53
2023-05-11T23:09:40.982Z,100215.06
2023-05-11T23:12:09.582Z,100214.72
2023-05-11T23:14:37.524Z,100217.91
2023-05-11T23:17:05.490Z,100221.41
2023-05-11T23:19:33.779Z,100211.38
2023-05-11T23:22:03.134Z,100211.38
2023-05-11T23:24:31.152Z,100214.06
2023-05-11T23:26:59.087Z,100209.00
2023-05-11T23:29:28.016Z,100206.31
2023-05-11T23:31:56.016Z,100210.34
2023-05-11T23:34:23.920Z,100209.66
2023-05-11T23:36:51.877Z,100205.59
2023-05-11T23:39:21.502Z,100204.94
2023-05-11T23:41:49.386Z,100205.72
2023-05-11T23:44:17.821Z,100204.56
2023-05-11T23:46:45.857Z,100205.88
2023-05-11T23:49:13.786Z,100201.56
2023-05-11T23:51:41.743Z,100208.56
2023-05-11T23:54:09.640Z,100204.69
2023-05-11T23:56:38.909Z,100214.28
2023-05-11T23:59:06.835Z,100207.53
